Weather at Auckland International Airport

Public forecast

Using degrees Celsius for public forecast. Weather courtesy of forecast.io.

Current aviation weather report (METAR) for Auckland International Airport

2024/05/28 14:30 (retrieved 24 minutes ago)

NZAA 281430Z AUTO 23012KT 9999 FEW030/// SCT038/// BKN048/// 13/10 Q1007

Aviation forecast (TAF) for Auckland International Airport

2024/05/28 15:15 (retrieved 0 seconds ago)

TAF NZAA 281404Z 2815/2918 24010KT 9999 -SHRA FEW025 BKN035 TEMPO 2815/2822 6000 SHRA BECMG 2822/2900 24025G40KT TEMPO 2822/2906 4000 SHRA FEW020TCU PROB40 TEMPO 2822/2906 24035G50KT 2000 +TSRAGS SCT020CB TEMPO 2906/2910 5000 SHRA SCT020TCU BECMG 2910/2912 24020G30KT